• images/banner/banner1.jpg
  • images/banner/banner2.jpg

Team Member Login

Aviation Weather

[source: ADDS]
METAR
EGVN 260550Z 30002KT CAVOK 01/M01 Q1034 NOSIG =
TAF EGVN 260430Z 2606/2706 33005KT 9999 SCT035 PROB30 TEMPO 2703/2706 SCT020
TAF
TAF EGVN 260430Z 2606/2706 33005KT 9999 SCT035 PROB30 TEMPO 2703/2706 SCT020 =